Clearview, Texas
Current Conditions -  °F | °C
As of 4:55 AM on Friday 19 Dec 2014 (Local Time) from KGYB Reporting Station
Light Rain Light Rain  
Wind Chill: 46°   Ceiling: 500
Heat Index: 50°   Visibility: 10mi
Dew Point: 49°   Wind: 8mph
Humidity: 97%   Direction: 10°N
Pressure: 30.06"   Gusts: NA
Location:  30.1644°N, 97.2747°W
Report Text: KGYB 191055Z AUTO 01007KT 10SM -RA OVC005 10/09 A3006 RMK AO2 P0011 T00980093
Loading
Personal Weather Stations






























Interactive Weather Map New forecast layout! Learn more

10-Day Weather Forecast

Advertisements
Track Severe Weather on mobile